Station: East Sale Airport  

  Atmospheric Gas Attenuation - ITU Rec 676-11   ----------------- dB/100km -----------------
Date Time Temp RH % AH g/m3 Dew Point Wind Direction Speed kph Gust kph Barometer mB Rainfall Since 9am 24GHz 47GHz 76GHz 122GHz 134GHz 241GHz
08/05 12:30 17 56 8.1 8.2 35 43 1018.7 0 18.4 24.4 36.6 95.8 88.6 304.5
08/05 12:20 16.7 62 8.81 9.4 48 57 1018.4 0 19.9 25.6 39.4 103.4 97.9 337.1
08/05 12:10 17 64 9.26 10.1 32 39 1018.5 0 20.8 26.2 41.0 107.7 103.3 356.1
08/05 12:00 16.9 62 8.92 9.6 41 46 1018.5 0 20.1 25.7 39.7 104.3 99.1 341.2
08/05 11:50 16.7 61 8.67 9.1 41 52 1018.7 0 19.6 25.4 38.9 102.0 96.1 330.9
08/05 11:40 16.1 64 8.77 9.3 33 43 1018.7 0 19.8 25.7 39.6 103.8 98.2 337.9
08/05 11:30 16.2 64 8.83 9.4 39 46 1018.8 0 20.0 25.8 39.8 104.3 98.8 340.2
08/05 11:20 16.6 65 9.18 10 32 37 1018.8 0 20.7 26.2 40.9 107.4 102.8 354.4
08/05 11:10 15.9 69 9.34 10.2 37 44 1018.5 0 21.1 26.7 41.9 110.1 105.9 364.8
08/05 11:00 15.6 71 9.44 10.4 35 43 1018.4 0 21.3 26.9 42.5 111.6 107.6 370.8
08/05 10:50 15.9 71 9.61 10.7 39 48 1018.8 0 21.6 27.1 43.0 113.0 109.5 377.5
08/05 10:40 15 75 9.62 10.6 24 32 1019 0 21.7 27.4 43.6 114.5 110.9 382.4
08/05 10:30 15.3 76 9.92 11.1 35 43 1018.4 0 22.3 27.8 44.6 117.3 114.5 394.9
08/05 10:20 15.4 74 9.72 10.8 35 46 1018.5 0 21.9 27.4 43.7 114.9 111.6 385.0
08/05 10:10 14.7 76 9.57 10.5 33 43 1018.3 0 21.6 27.4 43.5 114.3 110.6 381.2
08/05 10:00 14.7 76 9.57 10.5 35 50 1018.4 0 21.6 27.4 43.5 114.3 110.6 381.3
08/05 09:50 14.6 76 9.51 10.4 35 41 1018.4 0 21.5 27.3 43.3 113.8 109.9 378.9
08/05 09:40 14.2 78 9.52 10.4 30 37 1018.4 0 21.5 27.5 43.6 114.5 110.6 381.3
08/05 09:30 13.8 79 9.41 10.2 33 48 1018.3 0 21.3 27.4 43.3 113.8 109.7 378.0
08/05 09:20 14 80 9.65 10.6 32 39 1018.3 0 21.8 27.8 44.2 116.2 112.7 388.5
08/05 09:10 13.9 79 9.47 10.3 33 43 1018.1 0 21.4 27.5 43.5 114.3 110.4 380.3
08/05 09:00 13.7 82 9.71 10.7 30 43 1018.2 0 22.0 28.0 44.6 117.3 114.0 392.9
08/05 08:50 13.5 82 9.59 10.5 30 41 1018.3 0.4 21.7 27.8 44.3 116.3 112.6 388.1
08/05 08:40 13.5 81 9.47 10.3 33 41 1017.9 0.4 21.5 27.6 43.7 114.9 110.9 382.2
08/05 08:30 13.3 83 9.59 10.5 24 30 1017.7 0.4 21.7 27.9 44.3 116.5 112.9 388.9
08/05 08:20 13.1 85 9.7 10.6 30 35 1017.8 0.4 22.0 28.1 44.9 118.0 114.7 395.3
08/05 08:10 13.1 85 9.7 10.6 30 33 1017.5 0.4 22.0 28.1 44.9 118.0 114.7 395.2
08/05 08:00 13 84 9.53 10.4 28 41 1017.3 0.4 21.6 27.8 44.2 116.2 112.4 387.4
08/05 07:50 12.9 84 9.47 10.3 33 43 1017.2 0.4 21.5 27.8 44.0 115.7 111.7 385.0
08/05 07:40 12.7 86 9.57 10.4 32 39 1017.1 0.4 21.7 28.0 44.6 117.1 113.4 390.8
08/05 07:30 12.6 88 9.74 10.7 28 37 1017 0.4 22.1 28.3 45.3 119.2 115.9 399.6
08/05 07:20 12.3 92 9.99 11 24 28 1016.8 0.4 22.6 28.8 46.6 122.5 119.9 413.4
08/05 07:10 12.3 93 10.1 11.2 20 30 1016.9 0.4 22.9 29.0 47.1 123.8 121.5 418.9
08/05 07:00 12.6 90 9.96 11 30 44 1016.6 0.4 22.6 28.7 46.3 121.6 119.0 410.3
08/05 06:50 12.4 90 9.83 10.8 26 32 1016.4 0.4 22.3 28.5 45.8 120.4 117.4 404.9
08/05 06:40 12.3 90 9.77 10.7 26 35 1016.3 0.4 22.2 28.4 45.6 119.9 116.7 402.4
08/05 06:30 12.2 91 9.82 10.8 24 32 1016.4 0.4 22.3 28.6 45.9 120.6 117.6 405.4
08/05 06:20 12.1 92 9.87 10.8 24 30 1016.4 0.4 22.4 28.7 46.2 121.4 118.5 408.4
08/05 06:10 12.3 93 10.1 11.2 22 30 1016.4 0.4 22.9 29.0 47.0 123.7 121.4 418.8
08/05 06:00 12.3 92 9.99 11 24 37 1016.3 0.4 22.6 28.8 46.6 122.4 119.8 413.3
08/05 05:50 12.1 93 9.97 11 22 32 1016.2 0.4 22.6 28.8 46.6 122.5 119.9 413.3
08/05 05:40 12.1 93 9.97 11 28 35 1016 0.4 22.6 28.8 46.6 122.5 119.8 413.2
08/05 05:30 12.2 92 9.93 10.9 30 46 1016 0.4 22.5 28.7 46.3 121.9 119.1 410.7
08/05 05:20 12.1 93 9.97 11 26 28 1016.1 0.4 22.6 28.8 46.6 122.5 119.9 413.3
08/05 05:10 11.9 94 9.96 11 20 28 1016 0.2 22.6 28.9 46.7 122.7 120.0 413.8
08/05 05:00 12 93 9.91 10.9 30 43 1015.7 0.2 22.5 28.7 46.4 121.9 119.1 410.7
08/05 04:50 12 93 9.91 10.9 35 44 1015.5 0.2 22.5 28.7 46.4 121.9 119.1 410.6
08/05 04:40 11.9 93 9.85 10.8 32 43 1015.5 0.2 22.4 28.7 46.2 121.3 118.4 408.2
08/05 04:30 12 92 9.81 10.7 28 41 1015.6 0.2 22.3 28.6 45.9 120.7 117.7 405.7
08/05 04:20 12.2 89 9.61 10.4 32 41 1015.4 0 21.8 28.2 44.9 118.1 114.6 394.8
08/05 04:10 12.2 89 9.61 10.4 30 35 1015.5 0 21.8 28.2 44.9 118.1 114.6 394.8
08/05 04:00 12.2 90 9.71 10.6 33 52 1015.5 0 22.1 28.3 45.4 119.3 116.0 399.7
08/05 03:50 12.1 89 9.55 10.3 32 39 1015.3 0 21.7 28.1 44.7 117.6 113.8 392.3
08/05 03:40 12.1 90 9.65 10.5 32 50 1015.3 0 21.9 28.2 45.2 118.7 115.3 397.2
08/05 03:30 12 90 9.59 10.4 30 43 1015.2 0 21.8 28.2 45.0 118.2 114.6 394.7
08/05 03:20 12.3 87 9.45 10.2 39 48 1015.1 0 21.5 27.8 44.2 116.1 112.1 386.3
08/05 03:10 12.5 84 9.24 9.9 33 41 1015.1 0 21.0 27.4 43.2 113.5 108.9 375.2
08/05 03:00 12.4 85 9.29 10 30 41 1015.2 0 21.1 27.5 43.5 114.2 109.8 378.1
08/05 02:50 12.4 84 9.18 9.8 32 39 1015.3 0 20.9 27.4 43.0 113.0 108.3 372.8
08/05 02:40 12.1 85 9.12 9.7 24 32 1015.1 0 20.8 27.3 42.9 112.7 107.8 371.3
08/05 02:30 12.2 84 9.07 9.6 26 41 1015.2 0 20.7 27.2 42.6 112.0 107.0 368.5
08/05 02:20 12 84 8.95 9.4 26 32 1015.4 0 20.4 27.1 42.3 111.0 105.7 363.7
08/05 02:10 12 84 8.95 9.4 26 32 1015.5 0 20.4 27.1 42.3 111.0 105.7 363.7
08/05 02:00 11.8 85 8.95 9.4 24 35 1015.5 0 20.4 27.2 42.4 111.3 106.0 364.6
08/05 01:50 11.8 84 8.84 9.2 26 32 1015.6 0 20.2 27.0 41.9 110.1 104.5 359.4
08/05 01:40 11.6 85 8.84 9.2 32 39 1015.6 0 20.2 27.0 42.0 110.3 104.7 360.3
08/05 01:30 11.4 86 8.83 9.1 28 37 1015.5 0 20.2 27.1 42.1 110.5 104.9 360.7
08/05 01:20 11.4 85 8.73 9 30 35 1015.7 0 20.0 26.9 41.7 109.4 103.5 356.0
08/05 01:10 11.5 83 8.57 8.7 32 37 1015.7 0 19.6 26.6 41.0 107.5 101.2 347.8
08/05 01:00 11.8 79 8.32 8.3 28 41 1015.7 0 19.1 26.1 39.8 104.3 97.4 334.7
08/05 00:50 11.7 80 8.37 8.4 30 35 1015.8 0 19.2 26.2 40.0 105.0 98.2 337.5
08/05 00:40 11.4 81 8.32 8.3 26 32 1016 0 19.1 26.2 40.0 104.9 97.9 336.5
08/05 00:30 11.4 81 8.32 8.3 24 35 1016.2 0 19.1 26.3 40.0 104.9 97.9 336.5
08/05 00:20 11.4 80 8.21 8.1 32 39 1016.2 0 18.9 26.1 39.5 103.7 96.5 331.3
08/05 00:10 11.3 79 8.06 7.8 24 28 1016.3 0 18.5 25.9 39.0 102.2 94.6 324.7
08/05 00:00 11.3 79 8.06 7.8 26 41 1016.3 0 18.5 25.9 39.0 102.2 94.6 324.7
07/05 23:50 11.1 80 8.06 7.8 24 32 1016.5 0 18.6 25.9 39.1 102.5 94.8 325.6
07/05 23:40 11.2 79 8.01 7.7 30 35 1016.7 0 18.4 25.8 38.9 101.8 94.0 322.9
07/05 23:30 11 79 7.91 7.5 26 33 1017 0 18.2 25.7 38.6 101.1 93.0 319.1
07/05 23:20 11 79 7.91 7.5 26 35 1017 0 18.2 25.7 38.6 101.1 93.0 319.1
07/05 23:10 10.9 79 7.86 7.4 28 37 1017.3 0 18.1 25.7 38.4 100.7 92.4 317.2
07/05 23:00 10.7 79 7.76 7.2 22 33 1017.7 0 17.9 25.6 38.1 99.9 91.4 313.4
07/05 22:50 10.6 80 7.81 7.3 22 32 1017.7 0 18.0 25.7 38.4 100.5 92.2 316.2
07/05 22:40 10.6 79 7.71 7.1 28 35 1017.7 0 17.8 25.5 38.0 99.5 90.8 311.5
07/05 22:30 10.4 79 7.62 6.9 22 32 1017.8 0 17.6 25.5 37.7 98.7 89.9 308.1
07/05 22:20 10.4 78 7.52 6.7 26 35 1018.2 0 17.4 25.3 37.3 97.7 88.6 303.5
07/05 22:10 10.7 76 7.47 6.6 26 32 1018.1 0 17.3 25.1 37.0 96.8 87.5 300.0
07/05 22:00 10.7 76 7.47 6.6 24 37 1018.1 0 17.3 25.1 37.0 96.8 87.5 300.0
07/05 21:50 10.6 75 7.32 6.4 20 26 1018.3 0 17.0 24.9 36.4 95.3 85.7 293.5
07/05 21:40 10.4 76 7.33 6.4 24 28 1018.3 0 17.0 25.0 36.6 95.7 86.0 294.7
07/05 21:30 10.3 77 7.38 6.5 24 35 1018.4 0 17.1 25.1 36.8 96.3 86.8 297.4
07/05 21:20 10.3 77 7.38 6.5 24 30 1018.5 0 17.1 25.1 36.8 96.3 86.8 297.4
07/05 21:10 10.1 79 7.47 6.6 22 26 1018.5 0 17.3 25.3 37.3 97.6 88.2 302.4
07/05 21:00 9.9 81 7.56 6.8 20 30 1018.6 0 17.5 25.5 37.7 98.8 89.7 307.4
07/05 20:50 9.7 83 7.65 7 19 20 1018.9 0 17.7 25.7 38.2 100.1 91.2 312.5
07/05 20:40 9.8 81 7.52 6.7 20 22 1019.2 0 17.5 25.5 37.6 98.6 89.3 306.1
07/05 20:30 9.8 80 7.42 6.5 19 28 1019.2 0 17.2 25.3 37.2 97.5 88.0 301.4
07/05 20:20 9.7 80 7.38 6.4 17 22 1019.3 0 17.2 25.3 37.1 97.2 87.6 299.9
07/05 20:10 9.6 81 7.42 6.5 19 22 1019.4 0 17.3 25.4 37.3 97.7 88.2 302.2
07/05 20:00 9.6 82 7.51 6.7 17 22 1019.5 0 17.4 25.6 37.7 98.7 89.4 306.5

Last Refresh: 08-May-2026 12:08:15

Bureau of Meteorology